createdAt,value
2018-03-21T00:00:48.843Z,1.00
2018-03-21T00:03:15.032Z,0.90
2018-03-21T00:05:41.127Z,0.90
2018-03-21T00:08:07.183Z,0.80
2018-03-21T00:10:33.389Z,0.80
2018-03-21T00:12:59.431Z,0.80
2018-03-21T00:15:25.582Z,0.80
2018-03-21T00:17:51.836Z,0.80
2018-03-21T00:20:18.756Z,0.70
2018-03-21T00:22:44.864Z,0.70
2018-03-21T00:25:11.099Z,0.70
2018-03-21T00:27:37.263Z,0.70
2018-03-21T00:30:03.418Z,0.60
2018-03-21T00:32:30.204Z,0.60
2018-03-21T00:34:56.280Z,0.60
2018-03-21T00:37:22.361Z,0.60
2018-03-21T00:39:48.476Z,0.60
2018-03-21T00:42:14.710Z,0.60
2018-03-21T00:44:41.646Z,0.60
2018-03-21T00:47:07.788Z,0.60
2018-03-21T00:49:33.913Z,0.60
2018-03-21T00:52:00.741Z,0.60
2018-03-21T00:54:27.598Z,0.60
2018-03-21T00:56:54.417Z,0.50
2018-03-21T00:59:20.526Z,0.40
2018-03-21T01:01:46.627Z,0.50
2018-03-21T01:04:12.813Z,0.50
2018-03-21T01:06:38.994Z,0.50
2018-03-21T01:09:05.122Z,0.50
2018-03-21T01:11:31.599Z,0.50
2018-03-21T01:13:57.728Z,0.50
2018-03-21T01:16:23.846Z,0.50
2018-03-21T01:18:50.780Z,0.40
2018-03-21T01:21:16.907Z,0.40
2018-03-21T01:23:43.260Z,0.40
2018-03-21T01:26:09.386Z,0.40
2018-03-21T01:28:35.507Z,0.40
2018-03-21T01:31:01.624Z,0.30
2018-03-21T01:33:27.799Z,0.30
2018-03-21T01:35:54.107Z,0.30
2018-03-21T01:38:20.203Z,0.30
2018-03-21T01:40:47.091Z,0.30
2018-03-21T01:43:13.336Z,0.30
2018-03-21T01:45:39.474Z,0.30
2018-03-21T01:48:05.520Z,0.30
2018-03-21T01:50:31.622Z,0.20
2018-03-21T01:53:03.756Z,0.20
2018-03-21T01:55:30.889Z,0.10
2018-03-21T01:57:57.050Z,0.10
2018-03-21T02:00:23.854Z,0.20
2018-03-21T02:02:50.043Z,0.10
2018-03-21T02:05:16.217Z,0.20
2018-03-21T02:07:42.345Z,0.10
2018-03-21T02:10:08.501Z,0.20
2018-03-21T02:12:34.580Z,0.20
2018-03-21T02:15:00.640Z,0.10
2018-03-21T02:17:26.681Z,0.10
2018-03-21T02:19:53.184Z,0.10
2018-03-21T02:22:19.252Z,0.10
2018-03-21T02:24:45.495Z,0.00
2018-03-21T02:27:11.629Z,0.00
2018-03-21T02:29:37.830Z,-0.10
2018-03-21T02:32:03.862Z,-0.10
2018-03-21T02:34:29.939Z,-0.20
2018-03-21T02:36:56.837Z,-0.20
2018-03-21T02:39:22.962Z,-0.20
2018-03-21T02:41:49.182Z,-0.20
2018-03-21T02:44:15.334Z,-0.20
2018-03-21T02:46:41.495Z,-0.10
2018-03-21T02:49:07.685Z,-0.10
2018-03-21T02:51:33.763Z,-0.10
2018-03-21T02:54:00.140Z,-0.10
2018-03-21T02:56:26.705Z,-0.10
2018-03-21T02:58:52.921Z,-0.10
2018-03-21T03:01:19.045Z,-0.20
2018-03-21T03:03:45.080Z,-0.20
2018-03-21T03:06:11.222Z,-0.30
2018-03-21T03:08:37.307Z,-0.30
2018-03-21T03:11:03.474Z,-0.30
2018-03-21T03:13:29.688Z,-0.30
2018-03-21T03:15:55.729Z,-0.40
2018-03-21T03:18:21.807Z,-0.40
2018-03-21T03:20:47.968Z,-0.50
2018-03-21T03:23:14.811Z,-0.50
2018-03-21T03:25:41.042Z,-0.50
2018-03-21T03:28:07.165Z,-0.50
2018-03-21T03:30:33.211Z,-0.50
2018-03-21T03:32:59.370Z,-0.60
2018-03-21T03:35:25.442Z,-0.60
2018-03-21T03:37:52.225Z,-0.60
2018-03-21T03:40:19.047Z,-0.60
2018-03-21T03:42:45.115Z,-0.70
2018-03-21T03:45:11.171Z,-0.60
2018-03-21T03:47:37.298Z,-0.60
2018-03-21T03:50:03.372Z,-0.70
2018-03-21T03:52:29.443Z,-0.70
2018-03-21T03:54:55.893Z,-0.60
2018-03-21T03:57:22.400Z,-0.60
2018-03-21T03:59:49.262Z,-0.70
2018-03-21T04:02:16.110Z,-0.70
2018-03-21T04:04:42.856Z,-0.80
2018-03-21T04:07:09.784Z,-0.80
2018-03-21T04:09:35.975Z,-0.80
2018-03-21T04:12:02.249Z,-0.80
2018-03-21T04:14:28.376Z,-0.70
2018-03-21T04:16:54.448Z,-0.80
2018-03-21T04:19:20.514Z,-0.70
2018-03-21T04:21:46.584Z,-0.60
2018-03-21T04:24:13.642Z,-0.50
2018-03-21T04:26:41.058Z,-0.50
2018-03-21T04:29:07.139Z,-0.60
2018-03-21T04:31:34.010Z,-0.60
2018-03-21T04:34:00.150Z,-0.60
2018-03-21T04:36:26.207Z,-0.60
2018-03-21T04:38:53.051Z,-0.60
2018-03-21T04:41:19.229Z,-0.60
2018-03-21T04:43:46.166Z,-0.60
2018-03-21T04:46:13.009Z,-0.60
2018-03-21T04:48:39.540Z,-0.70
2018-03-21T04:51:05.670Z,-0.70
2018-03-21T04:53:31.795Z,-0.70
2018-03-21T04:55:57.900Z,-0.70
2018-03-21T04:58:23.991Z,-0.70
2018-03-21T05:00:50.831Z,-0.80
2018-03-21T05:03:17.995Z,-0.80
2018-03-21T05:05:45.295Z,-0.80
2018-03-21T05:08:11.331Z,-0.80
2018-03-21T05:10:37.745Z,-0.80
2018-03-21T05:13:03.905Z,-0.90
2018-03-21T05:15:30.426Z,-0.90
2018-03-21T05:17:56.454Z,-0.90
2018-03-21T05:20:22.596Z,-0.90
2018-03-21T05:22:48.829Z,-0.90
2018-03-21T05:25:16.233Z,-1.00
2018-03-21T05:27:42.685Z,-1.00
2018-03-21T05:30:08.805Z,-0.90
2018-03-21T05:32:35.298Z,-0.90
2018-03-21T05:35:01.520Z,-0.90
2018-03-21T05:37:27.716Z,-0.90
2018-03-21T05:39:54.577Z,-0.90
2018-03-21T05:42:20.743Z,-0.90
2018-03-21T05:44:47.991Z,-0.90
2018-03-21T05:47:14.140Z,-0.90
2018-03-21T05:49:40.683Z,-0.90
2018-03-21T05:52:06.906Z,-0.90
2018-03-21T05:54:32.984Z,-0.90
2018-03-21T05:56:59.822Z,-0.90
2018-03-21T05:59:25.946Z,-0.80
2018-03-21T06:01:52.195Z,-0.80
2018-03-21T06:04:19.051Z,-0.80
2018-03-21T06:06:45.127Z,-0.80
2018-03-21T06:09:13.781Z,-0.80
2018-03-21T06:11:40.595Z,-0.80
2018-03-21T06:14:06.692Z,-0.90
2018-03-21T06:16:33.179Z,-0.80
2018-03-21T06:18:59.425Z,-0.80
2018-03-21T06:21:26.381Z,-0.50
2018-03-21T06:23:53.730Z,-0.30
2018-03-21T06:26:20.708Z,-0.20
2018-03-21T06:28:48.226Z,-0.30
2018-03-21T06:31:14.881Z,-0.40
2018-03-21T06:33:42.150Z,-0.50
2018-03-21T06:36:08.370Z,-0.50
2018-03-21T06:38:34.976Z,-0.50
2018-03-21T06:41:02.441Z,-0.50
2018-03-21T06:43:28.573Z,-0.40
2018-03-21T06:45:54.789Z,-0.40
2018-03-21T06:48:20.976Z,-0.30
2018-03-21T06:50:47.051Z,-0.20
2018-03-21T06:53:13.749Z,-0.10
2018-03-21T06:55:39.842Z,0.00
2018-03-21T06:58:06.629Z,0.00
2018-03-21T07:00:32.889Z,0.00
2018-03-21T07:02:59.166Z,0.10
2018-03-21T07:05:26.098Z,0.20
2018-03-21T07:07:52.805Z,0.40
2018-03-21T07:10:21.186Z,0.50
2018-03-21T07:12:49.196Z,0.50
2018-03-21T07:15:29.373Z,0.50
2018-03-21T07:17:55.886Z,0.50
2018-03-21T07:20:22.680Z,0.70
2018-03-21T07:22:48.856Z,0.80
2018-03-21T07:25:15.564Z,1.00
2018-03-21T07:27:41.764Z,1.20
2018-03-21T07:30:07.898Z,1.20
2018-03-21T07:32:34.359Z,1.10
2018-03-21T07:35:00.534Z,1.20
2018-03-21T07:37:26.763Z,1.30
2018-03-21T07:39:54.006Z,1.40
2018-03-21T07:42:21.569Z,1.50
2018-03-21T07:44:48.522Z,1.60
2018-03-21T07:47:15.470Z,1.80
2018-03-21T07:49:43.270Z,1.90
2018-03-21T07:52:10.379Z,1.80
2018-03-21T07:54:36.728Z,2.00
2018-03-21T07:57:03.792Z,1.80
2018-03-21T07:59:31.130Z,2.00
2018-03-21T08:01:58.248Z,1.90
2018-03-21T08:04:24.427Z,2.10
2018-03-21T08:06:51.358Z,2.20
2018-03-21T08:09:17.592Z,2.30
2018-03-21T08:11:44.776Z,2.40
2018-03-21T08:14:11.609Z,2.60
2018-03-21T08:16:38.082Z,2.60
2018-03-21T08:19:04.317Z,2.60
2018-03-21T08:21:30.845Z,2.80
2018-03-21T08:23:57.250Z,2.70
2018-03-21T08:26:23.456Z,2.80
2018-03-21T08:28:49.606Z,2.80
2018-03-21T08:31:17.076Z,2.80
2018-03-21T08:33:43.632Z,3.00
2018-03-21T08:36:10.581Z,3.10
2018-03-21T08:38:37.559Z,3.20
2018-03-21T08:41:04.529Z,3.30
2018-03-21T08:43:30.809Z,3.20
2018-03-21T08:45:57.236Z,3.40
2018-03-21T08:48:24.168Z,3.40
2018-03-21T08:50:50.357Z,3.40
2018-03-21T08:53:16.567Z,3.50
2018-03-21T08:55:42.836Z,3.50
2018-03-21T08:58:08.991Z,3.60
2018-03-21T09:00:35.189Z,3.60
2018-03-21T09:03:01.399Z,3.50
2018-03-21T09:05:29.463Z,3.50
2018-03-21T09:07:55.987Z,3.60
2018-03-21T09:10:22.272Z,3.70
2018-03-21T09:12:49.071Z,3.90
2018-03-21T09:15:15.467Z,3.90
2018-03-21T09:17:41.726Z,4.00
2018-03-21T09:20:07.867Z,4.00
2018-03-21T09:22:34.060Z,4.00
2018-03-21T09:25:00.718Z,4.10
2018-03-21T09:27:26.743Z,4.30
2018-03-21T09:29:52.945Z,4.20
2018-03-21T09:32:19.096Z,4.20
2018-03-21T09:34:46.018Z,4.10
2018-03-21T09:37:12.227Z,4.10
2018-03-21T09:39:38.400Z,4.20
2018-03-21T09:42:04.722Z,4.00
2018-03-21T09:44:30.814Z,3.80
2018-03-21T09:46:57.311Z,3.80
2018-03-21T09:49:24.315Z,4.20
2018-03-21T09:51:50.446Z,4.20
2018-03-21T09:54:16.674Z,4.50
2018-03-21T09:56:43.638Z,4.60
2018-03-21T09:59:09.662Z,4.80
2018-03-21T10:01:36.708Z,4.90
2018-03-21T10:04:02.936Z,5.00
2018-03-21T10:06:30.502Z,4.90
2018-03-21T10:08:56.816Z,5.10
2018-03-21T10:11:24.100Z,5.20
2018-03-21T10:13:50.237Z,5.20
2018-03-21T10:16:16.329Z,5.10
2018-03-21T10:18:45.235Z,5.30
2018-03-21T10:21:11.332Z,5.20
2018-03-21T10:23:38.175Z,5.00
2018-03-21T10:26:04.604Z,4.90
2018-03-21T10:28:30.740Z,4.90
2018-03-21T10:30:57.268Z,4.40
2018-03-21T10:33:24.266Z,4.40
2018-03-21T10:35:50.387Z,4.20
2018-03-21T10:38:17.505Z,4.60
2018-03-21T10:40:43.562Z,4.60
2018-03-21T10:43:10.360Z,5.40
2018-03-21T10:45:37.502Z,5.30
2018-03-21T10:48:03.633Z,5.30
2018-03-21T10:50:30.678Z,5.30
2018-03-21T10:52:56.832Z,5.40
2018-03-21T10:55:22.891Z,5.60
2018-03-21T10:57:49.637Z,5.70
2018-03-21T11:00:15.729Z,5.90
2018-03-21T11:02:48.783Z,5.80
2018-03-21T11:05:15.660Z,6.20
2018-03-21T11:07:41.912Z,6.10
2018-03-21T11:10:08.971Z,6.80
2018-03-21T11:12:35.051Z,6.70
2018-03-21T11:15:01.837Z,6.40
2018-03-21T11:17:29.953Z,6.30
2018-03-21T11:19:56.027Z,6.40
2018-03-21T11:22:22.100Z,6.60
2018-03-21T11:24:48.127Z,6.60
2018-03-21T11:27:15.117Z,6.70
2018-03-21T11:29:41.979Z,7.40
2018-03-21T11:32:08.126Z,7.30
2018-03-21T11:34:34.779Z,7.50
2018-03-21T11:37:00.857Z,7.70
2018-03-21T11:39:26.924Z,7.20
2018-03-21T11:41:53.031Z,6.60
2018-03-21T11:44:19.870Z,6.20
2018-03-21T11:46:46.730Z,6.80
2018-03-21T11:49:13.028Z,6.80
2018-03-21T11:51:39.249Z,7.20
2018-03-21T11:54:05.394Z,7.30
2018-03-21T11:56:31.545Z,7.40
2018-03-21T11:58:59.591Z,7.80
2018-03-21T12:01:26.167Z,8.20
2018-03-21T12:03:52.312Z,8.60
2018-03-21T12:06:18.438Z,8.90
2018-03-21T12:08:46.297Z,8.00
2018-03-21T12:11:12.536Z,7.90
2018-03-21T12:13:38.837Z,8.20
2018-03-21T12:16:05.495Z,8.70
2018-03-21T12:18:31.718Z,9.00
2018-03-21T12:20:57.794Z,9.00
2018-03-21T12:23:24.251Z,9.10
2018-03-21T12:25:51.139Z,9.10
2018-03-21T12:28:17.534Z,9.00
2018-03-21T12:30:43.753Z,8.60
2018-03-21T12:33:10.070Z,8.90
2018-03-21T12:35:36.236Z,8.50
2018-03-21T12:38:02.716Z,8.20
2018-03-21T12:40:28.883Z,8.20
2018-03-21T12:42:55.427Z,7.90
2018-03-21T12:45:22.257Z,8.10
2018-03-21T12:47:48.499Z,8.30
2018-03-21T12:50:14.636Z,8.30
2018-03-21T12:52:41.450Z,9.00
2018-03-21T12:55:07.683Z,8.90
2018-03-21T12:57:33.779Z,9.30
2018-03-21T13:00:00.256Z,9.60
2018-03-21T13:02:26.353Z,9.70
2018-03-21T13:04:52.499Z,9.90
2018-03-21T13:07:18.510Z,10.00
2018-03-21T13:09:44.611Z,9.90
2018-03-21T13:12:11.491Z,10.20
2018-03-21T13:14:38.020Z,10.20
2018-03-21T13:17:04.925Z,10.00
2018-03-21T13:19:32.481Z,9.90
2018-03-21T13:21:58.751Z,10.00
2018-03-21T13:24:25.675Z,10.50
2018-03-21T13:26:53.718Z,10.40
2018-03-21T13:29:19.913Z,10.20
2018-03-21T13:31:46.103Z,9.70
2018-03-21T13:34:12.841Z,9.40
2018-03-21T13:36:39.240Z,9.10
2018-03-21T13:39:06.441Z,9.70
2018-03-21T13:41:32.704Z,9.70
2018-03-21T13:43:59.155Z,10.10
2018-03-21T13:46:25.465Z,10.10
2018-03-21T13:48:51.783Z,9.20
2018-03-21T13:51:18.038Z,9.10
2018-03-21T13:53:45.010Z,9.60
2018-03-21T13:56:11.436Z,9.80
2018-03-21T13:58:37.987Z,10.10
2018-03-21T14:01:05.710Z,10.40
2018-03-21T14:03:32.263Z,10.40
2018-03-21T14:05:59.519Z,10.80
2018-03-21T14:08:26.035Z,10.80
2018-03-21T14:10:52.320Z,11.20
2018-03-21T14:13:18.478Z,11.50
2018-03-21T14:15:45.150Z,11.80
2018-03-21T14:18:11.798Z,11.90
2018-03-21T14:20:38.528Z,11.90
2018-03-21T14:23:04.809Z,11.60
2018-03-21T14:25:31.836Z,10.00
2018-03-21T14:27:58.097Z,9.90
2018-03-21T14:30:25.280Z,10.10
2018-03-21T14:32:52.155Z,10.50
2018-03-21T14:35:19.435Z,10.50
2018-03-21T14:37:45.961Z,10.50
2018-03-21T14:40:12.163Z,10.70
2018-03-21T14:42:39.661Z,11.00
2018-03-21T14:45:05.841Z,11.00
2018-03-21T14:47:32.827Z,10.90
2018-03-21T14:49:58.965Z,10.90
2018-03-21T14:52:25.002Z,11.10
2018-03-21T14:54:51.527Z,11.40
2018-03-21T14:57:19.208Z,11.40
2018-03-21T14:59:45.416Z,11.30
2018-03-21T15:02:11.747Z,11.50
2018-03-21T15:04:39.042Z,11.40
2018-03-21T15:07:05.212Z,11.30
2018-03-21T15:09:31.391Z,11.20
2018-03-21T15:11:58.070Z,11.40
2018-03-21T15:14:24.575Z,11.20
2018-03-21T15:16:50.942Z,11.10
2018-03-21T15:19:17.528Z,11.30
2018-03-21T15:21:43.718Z,11.30
2018-03-21T15:24:10.105Z,11.40
2018-03-21T15:26:36.773Z,11.40
2018-03-21T15:29:02.893Z,11.40
2018-03-21T15:31:29.203Z,11.40
2018-03-21T15:33:55.529Z,11.20
2018-03-21T15:36:22.598Z,11.30
2018-03-21T15:38:49.844Z,11.30
2018-03-21T15:41:18.155Z,11.40
2018-03-21T15:43:44.453Z,11.30
2018-03-21T15:46:10.606Z,11.40
2018-03-21T15:48:37.461Z,11.30
2018-03-21T15:51:04.502Z,10.90
2018-03-21T15:53:31.112Z,10.80
2018-03-21T15:55:57.463Z,10.90
2018-03-21T15:58:23.682Z,10.90
2018-03-21T16:00:51.032Z,10.70
2018-03-21T16:03:17.236Z,10.70
2018-03-21T16:05:43.484Z,10.90
2018-03-21T16:08:09.720Z,11.00
2018-03-21T16:10:35.828Z,10.60
2018-03-21T16:13:02.039Z,10.30
2018-03-21T16:15:28.316Z,10.50
2018-03-21T16:17:54.500Z,10.70
2018-03-21T16:20:20.574Z,10.80
2018-03-21T16:22:47.378Z,10.60
2018-03-21T16:25:14.196Z,10.60
2018-03-21T16:27:40.593Z,10.70
2018-03-21T16:30:07.094Z,10.60
2018-03-21T16:32:34.012Z,10.60
2018-03-21T16:35:00.581Z,10.40
2018-03-21T16:37:28.333Z,10.30
2018-03-21T16:39:54.459Z,10.10
2018-03-21T16:42:20.684Z,10.00
2018-03-21T16:44:46.758Z,10.00
2018-03-21T16:47:12.966Z,10.00
2018-03-21T16:49:39.575Z,10.00
2018-03-21T16:52:06.810Z,9.90
2018-03-21T16:54:33.965Z,9.80
2018-03-21T16:57:01.111Z,9.80
2018-03-21T16:59:27.289Z,9.80
2018-03-21T17:01:53.466Z,9.90
2018-03-21T17:04:19.613Z,10.30
2018-03-21T17:06:46.863Z,11.60
2018-03-21T17:09:13.999Z,11.60
2018-03-21T17:11:41.167Z,11.60
2018-03-21T17:14:07.482Z,11.20
2018-03-21T17:16:34.004Z,10.70
2018-03-21T17:19:00.582Z,10.40
2018-03-21T17:21:29.889Z,10.70
2018-03-21T17:23:56.893Z,10.70
2018-03-21T17:26:23.183Z,10.40
2018-03-21T17:28:49.730Z,9.90
2018-03-21T17:31:15.988Z,9.50
2018-03-21T17:33:43.618Z,9.20
2018-03-21T17:36:10.627Z,8.90
2018-03-21T17:38:36.774Z,8.80
2018-03-21T17:41:04.431Z,8.60
2018-03-21T17:43:30.653Z,8.40
2018-03-21T17:45:57.834Z,8.30
2018-03-21T17:48:24.035Z,8.20
2018-03-21T17:50:50.445Z,8.10
2018-03-21T17:53:18.242Z,7.90
2018-03-21T17:55:45.979Z,7.90
2018-03-21T17:58:13.042Z,7.70
2018-03-21T18:00:39.482Z,7.60
2018-03-21T18:03:05.585Z,7.60
2018-03-21T18:05:32.759Z,7.50
2018-03-21T18:08:00.642Z,7.40
2018-03-21T18:10:27.406Z,7.30
2018-03-21T18:12:53.667Z,7.30
2018-03-21T18:15:20.811Z,7.20
2018-03-21T18:17:47.905Z,7.10
2018-03-21T18:20:14.357Z,7.10
2018-03-21T18:22:40.785Z,7.10
2018-03-21T18:25:08.374Z,7.00
2018-03-21T18:27:35.272Z,6.70
2018-03-21T18:30:01.476Z,6.70
2018-03-21T18:32:28.023Z,6.70
2018-03-21T18:34:57.211Z,6.70
2018-03-21T18:37:23.370Z,6.80
2018-03-21T18:39:49.608Z,6.70
2018-03-21T18:42:15.716Z,6.70
2018-03-21T18:44:41.939Z,6.70
2018-03-21T18:47:11.264Z,6.60
2018-03-21T18:49:37.798Z,6.50
2018-03-21T18:52:04.012Z,6.50
2018-03-21T18:54:31.272Z,6.40
2018-03-21T18:56:59.895Z,6.40
2018-03-21T18:59:28.217Z,6.30
2018-03-21T19:01:54.314Z,6.30
2018-03-21T19:04:20.608Z,6.30
2018-03-21T19:06:46.769Z,6.20
2018-03-21T19:09:12.959Z,6.10
2018-03-21T19:11:39.840Z,6.10
2018-03-21T19:14:06.042Z,6.00
2018-03-21T19:16:33.313Z,6.10
2018-03-21T19:18:59.568Z,6.00
2018-03-21T19:21:27.152Z,6.10
2018-03-21T19:23:54.481Z,6.00
2018-03-21T19:26:22.587Z,5.90
2018-03-21T19:28:48.651Z,5.90
2018-03-21T19:31:14.829Z,5.90
2018-03-21T19:33:40.955Z,5.80
2018-03-21T19:36:07.066Z,5.70
2018-03-21T19:38:34.311Z,5.60
2018-03-21T19:41:00.445Z,5.50
2018-03-21T19:43:27.355Z,5.60
2018-03-21T19:46:00.496Z,5.60
2018-03-21T19:48:26.921Z,5.50
2018-03-21T19:50:53.574Z,5.40
2018-03-21T19:53:21.693Z,5.40
2018-03-21T19:55:47.775Z,5.30
2018-03-21T19:58:14.042Z,5.30
2018-03-21T20:00:41.120Z,5.30
2018-03-21T20:03:07.552Z,5.30
2018-03-21T20:05:34.358Z,5.30
2018-03-21T20:08:00.430Z,5.30
2018-03-21T20:10:26.589Z,5.30
2018-03-21T20:12:54.516Z,5.20
2018-03-21T20:15:21.186Z,5.20
2018-03-21T20:17:48.594Z,5.10
2018-03-21T20:20:14.796Z,5.00
2018-03-21T20:22:41.207Z,5.00
2018-03-21T20:25:08.076Z,5.10
2018-03-21T20:27:34.203Z,5.00
2018-03-21T20:30:00.407Z,5.00
2018-03-21T20:32:26.609Z,5.00
2018-03-21T20:34:52.726Z,4.90
2018-03-21T20:37:19.607Z,4.90
2018-03-21T20:39:46.755Z,4.80
2018-03-21T20:42:13.588Z,4.70
2018-03-21T20:44:40.258Z,4.60
2018-03-21T20:47:06.471Z,4.60
2018-03-21T20:49:32.588Z,4.60
2018-03-21T20:51:58.738Z,4.60
2018-03-21T20:54:25.904Z,4.40
2018-03-21T20:56:52.884Z,4.40
2018-03-21T20:59:19.317Z,4.40
2018-03-21T21:01:45.541Z,4.30
2018-03-21T21:04:12.294Z,4.20
2018-03-21T21:06:38.852Z,4.20
2018-03-21T21:09:06.057Z,4.10
2018-03-21T21:11:32.906Z,4.10
2018-03-21T21:13:59.483Z,4.10
2018-03-21T21:16:25.582Z,4.10
2018-03-21T21:18:52.267Z,4.00
2018-03-21T21:21:18.337Z,4.00
2018-03-21T21:23:44.559Z,4.00
2018-03-21T21:26:10.768Z,3.90
2018-03-21T21:28:37.803Z,4.00
2018-03-21T21:31:04.100Z,4.00
2018-03-21T21:33:32.145Z,4.00
2018-03-21T21:35:58.351Z,4.00
2018-03-21T21:38:24.661Z,4.00
2018-03-21T21:40:51.589Z,4.00
2018-03-21T21:43:17.814Z,3.90
2018-03-21T21:45:43.963Z,4.00
2018-03-21T21:48:10.948Z,3.90
2018-03-21T21:50:37.124Z,3.90
2018-03-21T21:53:03.348Z,3.90
2018-03-21T21:55:29.483Z,3.90
2018-03-21T21:57:55.730Z,3.90
2018-03-21T22:00:21.978Z,3.90
2018-03-21T22:02:49.346Z,3.90
2018-03-21T22:05:16.651Z,3.90
2018-03-21T22:07:42.858Z,3.90
2018-03-21T22:10:10.086Z,4.00
2018-03-21T22:12:36.197Z,3.90
2018-03-21T22:15:02.316Z,4.00
2018-03-21T22:17:28.465Z,3.90
2018-03-21T22:19:55.000Z,3.90
2018-03-21T22:22:21.625Z,3.90
2018-03-21T22:24:48.664Z,3.90
2018-03-21T22:27:14.778Z,4.00
2018-03-21T22:29:40.990Z,3.90
2018-03-21T22:32:08.256Z,3.90
2018-03-21T22:34:35.095Z,3.80
2018-03-21T22:37:01.319Z,3.70
2018-03-21T22:39:29.691Z,3.70
2018-03-21T22:41:55.940Z,3.70
2018-03-21T22:44:22.823Z,3.50
2018-03-21T22:46:48.903Z,3.40
2018-03-21T22:49:15.076Z,3.50
2018-03-21T22:51:41.298Z,3.40
2018-03-21T22:54:08.801Z,3.30
2018-03-21T22:56:34.894Z,3.30
2018-03-21T22:59:03.975Z,3.30
2018-03-21T23:01:30.063Z,3.30
2018-03-21T23:03:56.142Z,3.20
2018-03-21T23:06:22.232Z,3.20
2018-03-21T23:08:48.252Z,3.10
2018-03-21T23:11:14.303Z,3.10
2018-03-21T23:13:41.260Z,3.10
2018-03-21T23:16:07.425Z,3.10
2018-03-21T23:18:34.235Z,3.00
2018-03-21T23:21:01.041Z,3.00
2018-03-21T23:23:27.902Z,2.90
2018-03-21T23:25:53.974Z,2.90
2018-03-21T23:28:20.070Z,3.00
2018-03-21T23:30:46.166Z,2.90
2018-03-21T23:33:12.232Z,2.90
2018-03-21T23:35:38.376Z,2.80
2018-03-21T23:38:05.213Z,2.80
2018-03-21T23:40:31.391Z,2.70
2018-03-21T23:42:58.725Z,2.80
2018-03-21T23:45:24.793Z,2.70
2018-03-21T23:47:50.950Z,2.80
2018-03-21T23:50:17.052Z,2.70
2018-03-21T23:52:44.234Z,2.60
2018-03-21T23:55:10.261Z,2.60
2018-03-21T23:57:36.374Z,2.60
